sensor_id;sensor_type;location;lat;lon;timestamp;pressure;altitude;pressure_sealevel;temperature;humidity
53699;BME280;68408;53.952;27.612;2023-06-05T00:01:44;1017.8;;;14.3;41.5
53699;BME280;68408;53.952;27.612;2023-06-05T00:06:40;1017.8;;;14.2;41.8
53699;BME280;68408;53.952;27.612;2023-06-05T00:11:52;1017.7;;;14.1;42.2
53699;BME280;68408;53.952;27.612;2023-06-05T00:17:06;1017.7;;;14;42.9
53699;BME280;68408;53.952;27.612;2023-06-05T00:21:32;1017.7;;;13.9;43.4
53699;BME280;68408;53.952;27.612;2023-06-05T00:26:32;1017.7;;;13.9;43.4
53699;BME280;68408;53.952;27.612;2023-06-05T00:32:00;1017.7;;;13.8;43.5
53699;BME280;68408;53.952;27.612;2023-06-05T00:37:04;1017.7;;;13.8;43.7
53699;BME280;68408;53.952;27.612;2023-06-05T00:41:35;1017.7;;;13.7;43.9
53699;BME280;68408;53.952;27.612;2023-06-05T00:46:51;1017.7;;;13.6;44.4
53699;BME280;68408;53.952;27.612;2023-06-05T00:51:52;1017.7;;;13.5;45
53699;BME280;68408;53.952;27.612;2023-06-05T00:57:12;1017.7;;;13.5;45.2
53699;BME280;68408;53.952;27.612;2023-06-05T01:01:44;1017.7;;;13.4;45.3
53699;BME280;68408;53.952;27.612;2023-06-05T01:06:50;1017.7;;;13.4;45.5
53699;BME280;68408;53.952;27.612;2023-06-05T01:11:35;1017.7;;;13.3;45.8
53699;BME280;68408;53.952;27.612;2023-06-05T01:16:32;1017.7;;;13.2;45.7
53699;BME280;68408;53.952;27.612;2023-06-05T01:21:40;1017.8;;;13.1;45.7
53699;BME280;68408;53.952;27.612;2023-06-05T01:26:53;1017.8;;;13.1;45.6
53699;BME280;68408;53.952;27.612;2023-06-05T01:31:40;1017.8;;;13;45.9
53699;BME280;68408;53.952;27.612;2023-06-05T01:36:32;1017.8;;;12.9;45.5
53699;BME280;68408;53.952;27.612;2023-06-05T01:41:46;1017.7;;;12.9;45.7
53699;BME280;68408;53.952;27.612;2023-06-05T01:46:52;1017.7;;;12.8;45.8
53699;BME280;68408;53.952;27.612;2023-06-05T01:51:32;1017.7;;;12.8;45.8
53699;BME280;68408;53.952;27.612;2023-06-05T01:56:32;1017.8;;;12.8;45.6
53699;BME280;68408;53.952;27.612;2023-06-05T02:01:38;1017.8;;;12.8;45.1
53699;BME280;68408;53.952;27.612;2023-06-05T02:06:42;1017.8;;;12.9;44.6
53699;BME280;68408;53.952;27.612;2023-06-05T02:11:54;1017.8;;;12.9;44
53699;BME280;68408;53.952;27.612;2023-06-05T02:16:44;1017.9;;;13;43.1
53699;BME280;68408;53.952;27.612;2023-06-05T02:21:48;1017.9;;;13.1;43
53699;BME280;68408;53.952;27.612;2023-06-05T02:26:52;1017.9;;;13.5;42.3
53699;BME280;68408;53.952;27.612;2023-06-05T02:31:48;1017.8;;;13.9;41.5
53699;BME280;68408;53.952;27.612;2023-06-05T02:36:32;1017.8;;;15;40.3
53699;BME280;68408;53.952;27.612;2023-06-05T02:41:43;1017.6;;;16.8;38
53699;BME280;68408;53.952;27.612;2023-06-05T02:46:54;1017.6;;;18.3;35.9
53699;BME280;68408;53.952;27.612;2023-06-05T02:51:42;1017.5;;;19.4;34.1
53699;BME280;68408;53.952;27.612;2023-06-05T02:56:32;1017.5;;;20.4;32.7
53699;BME280;68408;53.952;27.612;2023-06-05T03:01:46;1017.5;;;21.3;31.3
53699;BME280;68408;53.952;27.612;2023-06-05T03:06:52;1017.4;;;21.9;30.3
53699;BME280;68408;53.952;27.612;2023-06-05T03:11:54;1017.5;;;22.4;29.3
53699;BME280;68408;53.952;27.612;2023-06-05T03:16:54;1017.5;;;23;28.6
53699;BME280;68408;53.952;27.612;2023-06-05T03:21:44;1017.5;;;23.7;27.8
53699;BME280;68408;53.952;27.612;2023-06-05T03:26:54;1017.5;;;24.5;26.9
53699;BME280;68408;53.952;27.612;2023-06-05T03:31:54;1017.5;;;24.7;26.4
53699;BME280;68408;53.952;27.612;2023-06-05T03:37:00;1017.5;;;25;25.9
53699;BME280;68408;53.952;27.612;2023-06-05T03:41:32;1017.5;;;24;26.7
53699;BME280;68408;53.952;27.612;2023-06-05T03:46:54;1017.5;;;23.2;27.3
53699;BME280;68408;53.952;27.612;2023-06-05T03:51:44;1017.6;;;22.1;28.6
53699;BME280;68408;53.952;27.612;2023-06-05T03:56:32;1017.7;;;20.6;30.1
53699;BME280;68408;53.952;27.612;2023-06-05T04:01:38;1017.8;;;19.6;31.4
53699;BME280;68408;53.952;27.612;2023-06-05T04:06:53;1017.8;;;18.8;32.8
53699;BME280;68408;53.952;27.612;2023-06-05T04:11:44;1017.8;;;18.2;33.7
53699;BME280;68408;53.952;27.612;2023-06-05T04:16:32;1017.8;;;17.7;34.7
53699;BME280;68408;53.952;27.612;2023-06-05T04:21:48;1017.8;;;17.5;35.7
53699;BME280;68408;53.952;27.612;2023-06-05T04:27:00;1017.8;;;17.3;36.1
53699;BME280;68408;53.952;27.612;2023-06-05T04:31:45;1017.8;;;17.2;36.6
53699;BME280;68408;53.952;27.612;2023-06-05T04:36:36;1017.8;;;17.2;36.7
53699;BME280;68408;53.952;27.612;2023-06-05T04:41:46;1017.8;;;17.3;36.7
53699;BME280;68408;53.952;27.612;2023-06-05T04:46:54;1017.8;;;17.4;37
53699;BME280;68408;53.952;27.612;2023-06-05T04:51:54;1017.8;;;17.4;37.2
53699;BME280;68408;53.952;27.612;2023-06-05T04:57:12;1017.8;;;17.4;37.5
53699;BME280;68408;53.952;27.612;2023-06-05T05:01:36;1017.8;;;17.7;37.3
53699;BME280;68408;53.952;27.612;2023-06-05T05:06:32;1017.8;;;17.8;37.2
53699;BME280;68408;53.952;27.612;2023-06-05T05:11:44;1017.8;;;17.9;37.2
53699;BME280;68408;53.952;27.612;2023-06-05T05:16:32;1017.8;;;17.9;37.3
53699;BME280;68408;53.952;27.612;2023-06-05T05:21:32;1017.8;;;17.9;37.6
53699;BME280;68408;53.952;27.612;2023-06-05T05:26:51;1017.8;;;18;37.6
53699;BME280;68408;53.952;27.612;2023-06-05T05:31:54;1017.8;;;18.1;37.3
53699;BME280;68408;53.952;27.612;2023-06-05T05:36:42;1017.8;;;18.1;37
53699;BME280;68408;53.952;27.612;2023-06-05T05:41:36;1017.8;;;18.2;37
53699;BME280;68408;53.952;27.612;2023-06-05T05:46:40;1017.8;;;18.4;36.7
53699;BME280;68408;53.952;27.612;2023-06-05T05:51:33;1017.8;;;18.6;36.2
53699;BME280;68408;53.952;27.612;2023-06-05T05:56:32;1017.8;;;18.7;36.2
53699;BME280;68408;53.952;27.612;2023-06-05T06:02:14;1017.8;;;18.8;35.9
53699;BME280;68408;53.952;27.612;2023-06-05T06:06:54;1017.8;;;18.9;35.5
53699;BME280;68408;53.952;27.612;2023-06-05T06:11:42;1017.8;;;19;34.6
53699;BME280;68408;53.952;27.612;2023-06-05T06:16:42;1017.8;;;19;34.5
53699;BME280;68408;53.952;27.612;2023-06-05T06:21:36;1017.8;;;19.3;33.7
53699;BME280;68408;53.952;27.612;2023-06-05T06:26:40;1017.8;;;19.4;32.6
53699;BME280;68408;53.952;27.612;2023-06-05T06:31:54;1017.8;;;19.4;31.6
53699;BME280;68408;53.952;27.612;2023-06-05T06:36:33;1017.8;;;19.4;31.1
53699;BME280;68408;53.952;27.612;2023-06-05T06:41:46;1017.8;;;19.5;31.1
53699;BME280;68408;53.952;27.612;2023-06-05T06:46:42;1017.8;;;19.5;31.1
53699;BME280;68408;53.952;27.612;2023-06-05T06:51:44;1017.8;;;19.5;31.3
53699;BME280;68408;53.952;27.612;2023-06-05T06:56:32;1017.8;;;19.7;31
53699;BME280;68408;53.952;27.612;2023-06-05T07:01:48;1017.8;;;19.8;30.7
53699;BME280;68408;53.952;27.612;2023-06-05T07:06:51;1017.8;;;19.8;30.4
53699;BME280;68408;53.952;27.612;2023-06-05T07:11:33;1017.8;;;19.8;30.3
53699;BME280;68408;53.952;27.612;2023-06-05T07:16:50;1017.8;;;19.9;30.5
53699;BME280;68408;53.952;27.612;2023-06-05T07:21:53;1017.7;;;20.1;30.2
53699;BME280;68408;53.952;27.612;2023-06-05T07:27:04;1017.8;;;20.1;29.9
53699;BME280;68408;53.952;27.612;2023-06-05T07:31:44;1017.7;;;20.3;29.4
53699;BME280;68408;53.952;27.612;2023-06-05T07:36:32;1017.7;;;20.4;29.3
53699;BME280;68408;53.952;27.612;2023-06-05T07:41:48;1017.7;;;20.5;29
53699;BME280;68408;53.952;27.612;2023-06-05T07:47:04;1017.8;;;20.4;28.8
53699;BME280;68408;53.952;27.612;2023-06-05T07:51:56;1017.8;;;20.4;27.5
53699;BME280;68408;53.952;27.612;2023-06-05T07:56:45;1017.8;;;20.4;26.4
53699;BME280;68408;53.952;27.612;2023-06-05T08:01:36;1017.8;;;20.5;26.2
53699;BME280;68408;53.952;27.612;2023-06-05T08:06:54;1017.8;;;20.6;25.9
53699;BME280;68408;53.952;27.612;2023-06-05T08:11:56;1017.7;;;20.8;25.9
53699;BME280;68408;53.952;27.612;2023-06-05T08:16:32;1017.7;;;20.8;25.4
53699;BME280;68408;53.952;27.612;2023-06-05T08:21:51;1017.7;;;20.9;25.8
53699;BME280;68408;53.952;27.612;2023-06-05T08:26:44;1017.7;;;20.9;25.5
53699;BME280;68408;53.952;27.612;2023-06-05T08:31:54;1017.7;;;20.9;25.3
53699;BME280;68408;53.952;27.612;2023-06-05T08:37:01;1017.8;;;21;25
53699;BME280;68408;53.952;27.612;2023-06-05T08:41:32;1017.7;;;21.1;24.7
53699;BME280;68408;53.952;27.612;2023-06-05T08:46:32;1017.8;;;21.1;24.9
53699;BME280;68408;53.952;27.612;2023-06-05T08:51:57;1017.8;;;21.1;25.1
53699;BME280;68408;53.952;27.612;2023-06-05T08:56:48;1017.8;;;21.1;25.1
53699;BME280;68408;53.952;27.612;2023-06-05T09:01:48;1017.7;;;21.2;24.9
53699;BME280;68408;53.952;27.612;2023-06-05T09:06:56;1017.8;;;21.3;24.6
53699;BME280;68408;53.952;27.612;2023-06-05T09:12:10;1017.7;;;21.2;24.8
53699;BME280;68408;53.952;27.612;2023-06-05T09:16:49;1017.7;;;21.1;24.9
53699;BME280;68408;53.952;27.612;2023-06-05T09:21:58;1017.7;;;21.1;25
53699;BME280;68408;53.952;27.612;2023-06-05T09:26:55;1017.7;;;21.1;25.2
53699;BME280;68408;53.952;27.612;2023-06-05T09:31:39;1017.6;;;21.2;25.3
53699;BME280;68408;53.952;27.612;2023-06-05T09:36:44;1017.6;;;21.5;25
53699;BME280;68408;53.952;27.612;2023-06-05T09:41:41;1017.5;;;21.6;24.7
53699;BME280;68408;53.952;27.612;2023-06-05T09:46:32;1017.5;;;21.9;24.5
53699;BME280;68408;53.952;27.612;2023-06-05T09:51:32;1017.5;;;22.2;23.9
53699;BME280;68408;53.952;27.612;2023-06-05T09:56:32;1017.4;;;22.3;23.4
53699;BME280;68408;53.952;27.612;2023-06-05T10:01:36;1017.3;;;22.5;23.3
53699;BME280;68408;53.952;27.612;2023-06-05T10:06:59;1017.4;;;22.9;23.5
53699;BME280;68408;53.952;27.612;2023-06-05T10:11:47;1017.4;;;23.2;23.5
53699;BME280;68408;53.952;27.612;2023-06-05T10:17:19;1017.3;;;23.5;23.2
53699;BME280;68408;53.952;27.612;2023-06-05T10:21:59;1017.3;;;23.8;23.2
53699;BME280;68408;53.952;27.612;2023-06-05T10:27:10;1017.3;;;23.8;23.8
53699;BME280;68408;53.952;27.612;2023-06-05T10:31:45;1017.3;;;23.2;24.3
53699;BME280;68408;53.952;27.612;2023-06-05T10:36:48;1017.3;;;22.8;24.6
53699;BME280;68408;53.952;27.612;2023-06-05T10:41:49;1017.2;;;23;24.3
53699;BME280;68408;53.952;27.612;2023-06-05T10:46:45;1017.2;;;23.2;24
53699;BME280;68408;53.952;27.612;2023-06-05T10:51:45;1017.1;;;23.4;23.8
53699;BME280;68408;53.952;27.612;2023-06-05T10:57:01;1017.1;;;23.3;24.5
53699;BME280;68408;53.952;27.612;2023-06-05T11:01:45;1017.2;;;23.3;24.3
53699;BME280;68408;53.952;27.612;2023-06-05T11:06:39;1017.1;;;23.4;23.6
53699;BME280;68408;53.952;27.612;2023-06-05T11:12:00;1017.1;;;23.6;23
53699;BME280;68408;53.952;27.612;2023-06-05T11:17:15;1017;;;23.7;22.8
53699;BME280;68408;53.952;27.612;2023-06-05T11:22:05;1017.1;;;23.4;23.4
53699;BME280;68408;53.952;27.612;2023-06-05T11:26:55;1017.1;;;23.2;23.6
53699;BME280;68408;53.952;27.612;2023-06-05T11:31:33;1017;;;22.9;23.7
53699;BME280;68408;53.952;27.612;2023-06-05T11:36:33;1017;;;23;23.6
53699;BME280;68408;53.952;27.612;2023-06-05T11:41:51;1017.1;;;23.2;23.1
53699;BME280;68408;53.952;27.612;2023-06-05T11:46:36;1017;;;23.2;22.4
53699;BME280;68408;53.952;27.612;2023-06-05T11:51:57;1016.9;;;23.2;22.6
53699;BME280;68408;53.952;27.612;2023-06-05T11:56:39;1017;;;23.3;22.9
53699;BME280;68408;53.952;27.612;2023-06-05T12:01:51;1017;;;23.5;22.3
53699;BME280;68408;53.952;27.612;2023-06-05T12:06:33;1017;;;23.6;22.3
53699;BME280;68408;53.952;27.612;2023-06-05T12:12:05;1017;;;23.6;22.3
53699;BME280;68408;53.952;27.612;2023-06-05T12:16:45;1017;;;23.5;22.5
53699;BME280;68408;53.952;27.612;2023-06-05T12:21:51;1017;;;23.5;22.4
53699;BME280;68408;53.952;27.612;2023-06-05T12:27:04;1017;;;23.5;22.1
53699;BME280;68408;53.952;27.612;2023-06-05T12:32:03;1016.8;;;23.7;22.4
53699;BME280;68408;53.952;27.612;2023-06-05T12:36:37;1016.8;;;24;22
53699;BME280;68408;53.952;27.612;2023-06-05T12:41:45;1016.9;;;23.8;22
53699;BME280;68408;53.952;27.612;2023-06-05T12:46:45;1016.9;;;23.6;22.3
53699;BME280;68408;53.952;27.612;2023-06-05T12:52:03;1016.9;;;23.8;22.1
53699;BME280;68408;53.952;27.612;2023-06-05T12:56:33;1016.7;;;24;21.8
53699;BME280;68408;53.952;27.612;2023-06-05T13:01:33;1016.6;;;24.4;21.6
53699;BME280;68408;53.952;27.612;2023-06-05T13:06:57;1016.6;;;24.6;21
53699;BME280;68408;53.952;27.612;2023-06-05T13:12:03;1016.6;;;24.5;21.1
53699;BME280;68408;53.952;27.612;2023-06-05T13:16:45;1016.6;;;24.5;21.2
53699;BME280;68408;53.952;27.612;2023-06-05T13:21:49;1016.5;;;24.4;21.4
53699;BME280;68408;53.952;27.612;2023-06-05T13:26:45;1016.6;;;24.4;21.4
53699;BME280;68408;53.952;27.612;2023-06-05T13:32:03;1016.5;;;24.7;21.3
53699;BME280;68408;53.952;27.612;2023-06-05T13:36:33;1016.5;;;24.8;21.3
53699;BME280;68408;53.952;27.612;2023-06-05T13:41:33;1016.5;;;24.8;21.3
53699;BME280;68408;53.952;27.612;2023-06-05T13:46:57;1016.5;;;24.8;21.3
53699;BME280;68408;53.952;27.612;2023-06-05T13:52:05;1016.5;;;24.8;21.3
53699;BME280;68408;53.952;27.612;2023-06-05T13:56:33;1016.5;;;24.8;21.3
53699;BME280;68408;53.952;27.612;2023-06-05T14:01:33;1016.5;;;24.8;21.3
53699;BME280;68408;53.952;27.612;2023-06-05T14:06:33;1016.5;;;24.2;22.8
53699;BME280;68408;53.952;27.612;2023-06-05T14:12:03;1016.5;;;24;23
53699;BME280;68408;53.952;27.612;2023-06-05T14:16:45;1016.6;;;23.7;23.6
53699;BME280;68408;53.952;27.612;2023-06-05T14:21:33;1016.5;;;23.3;24
53699;BME280;68408;53.952;27.612;2023-06-05T14:26:34;1016.5;;;23.3;24.1
53699;BME280;68408;53.952;27.612;2023-06-05T14:32:03;1016.5;;;23.4;23.9
53699;BME280;68408;53.952;27.612;2023-06-05T14:36:33;1016.6;;;23.1;24.1
53699;BME280;68408;53.952;27.612;2023-06-05T14:42:03;1016.6;;;23;24.3
53699;BME280;68408;53.952;27.612;2023-06-05T14:47:03;1016.5;;;23.2;24.3
53699;BME280;68408;53.952;27.612;2023-06-05T14:52:03;1016.4;;;23.3;24.3
53699;BME280;68408;53.952;27.612;2023-06-05T14:56:33;1016.3;;;23.5;24.6
53699;BME280;68408;53.952;27.612;2023-06-05T15:01:37;1016.4;;;23.4;24.8
53699;BME280;68408;53.952;27.612;2023-06-05T15:06:33;1016.4;;;23.2;24.9
53699;BME280;68408;53.952;27.612;2023-06-05T15:12:03;1016.4;;;23.2;24.7
53699;BME280;68408;53.952;27.612;2023-06-05T15:16:33;1016.4;;;23.2;25.1
53699;BME280;68408;53.952;27.612;2023-06-05T15:21:43;1016.4;;;23.1;25.4
53699;BME280;68408;53.952;27.612;2023-06-05T15:26:55;1016.4;;;23.2;25.5
53699;BME280;68408;53.952;27.612;2023-06-05T15:32:03;1016.4;;;23.3;25.4
53699;BME280;68408;53.952;27.612;2023-06-05T15:36:33;1016.4;;;23.5;25.2
53699;BME280;68408;53.952;27.612;2023-06-05T15:41:49;1016.4;;;23.4;25.6
53699;BME280;68408;53.952;27.612;2023-06-05T15:46:57;1016.4;;;23.5;25.5
53699;BME280;68408;53.952;27.612;2023-06-05T15:52:17;1016.4;;;23.5;25.6
53699;BME280;68408;53.952;27.612;2023-06-05T15:57:03;1016.4;;;23.7;25.5
53699;BME280;68408;53.952;27.612;2023-06-05T16:01:37;1016.4;;;23.9;25.4
53699;BME280;68408;53.952;27.612;2023-06-05T16:06:33;1016.5;;;23.7;25.8
53699;BME280;68408;53.952;27.612;2023-06-05T16:12:05;1016.4;;;23.3;26.3
53699;BME280;68408;53.952;27.612;2023-06-05T16:16:39;1016.4;;;23.4;26.4
53699;BME280;68408;53.952;27.612;2023-06-05T16:21:49;1016.4;;;23.4;26.7
53699;BME280;68408;53.952;27.612;2023-06-05T16:26:33;1016.4;;;23.4;26.8
53699;BME280;68408;53.952;27.612;2023-06-05T16:32:03;1016.4;;;23.2;26.9
53699;BME280;68408;53.952;27.612;2023-06-05T16:36:33;1016.4;;;22.9;27.5
53699;BME280;68408;53.952;27.612;2023-06-05T16:41:49;1016.4;;;22.5;28
53699;BME280;68408;53.952;27.612;2023-06-05T16:47:17;1016.5;;;22.2;28.4
53699;BME280;68408;53.952;27.612;2023-06-05T16:52:01;1016.5;;;22.1;28.7
53699;BME280;68408;53.952;27.612;2023-06-05T16:56:49;1016.6;;;21.9;29.4
53699;BME280;68408;53.952;27.612;2023-06-05T17:01:49;1016.6;;;21.7;29.8
53699;BME280;68408;53.952;27.612;2023-06-05T17:07:15;1016.6;;;21.5;30.1
53699;BME280;68408;53.952;27.612;2023-06-05T17:12:01;1016.7;;;21.3;30.4
53699;BME280;68408;53.952;27.612;2023-06-05T17:16:49;1016.7;;;21.3;30.6
53699;BME280;68408;53.952;27.612;2023-06-05T17:21:55;1016.6;;;21.6;30.1
53699;BME280;68408;53.952;27.612;2023-06-05T17:27:15;1016.6;;;21.8;29.9
53699;BME280;68408;53.952;27.612;2023-06-05T17:31:57;1016.6;;;21.8;29.9
53699;BME280;68408;53.952;27.612;2023-06-05T17:36:33;1016.6;;;21.8;30
53699;BME280;68408;53.952;27.612;2023-06-05T17:41:33;1016.6;;;21.8;30.1
53699;BME280;68408;53.952;27.612;2023-06-05T17:46:35;1016.6;;;21.7;30.1
53699;BME280;68408;53.952;27.612;2023-06-05T17:52:01;1016.7;;;21.4;30.4
53699;BME280;68408;53.952;27.612;2023-06-05T17:56:45;1016.7;;;21.3;30.6
53699;BME280;68408;53.952;27.612;2023-06-05T18:01:45;1016.7;;;21.1;30.7
53699;BME280;68408;53.952;27.612;2023-06-05T18:07:15;1016.8;;;21;30.9
53699;BME280;68408;53.952;27.612;2023-06-05T18:11:35;1016.8;;;20.6;31.3
53699;BME280;68408;53.952;27.612;2023-06-05T18:16:45;1016.9;;;20.2;32
53699;BME280;68408;53.952;27.612;2023-06-05T18:21:38;1017;;;19.9;32.4
53699;BME280;68408;53.952;27.612;2023-06-05T18:27:17;1017;;;19.6;32.9
53699;BME280;68408;53.952;27.612;2023-06-05T18:32:03;1017.1;;;19.4;33.2
53699;BME280;68408;53.952;27.612;2023-06-05T18:36:33;1017.1;;;19.2;33.6
53699;BME280;68408;53.952;27.612;2023-06-05T18:41:45;1017.2;;;19;33.9
53699;BME280;68408;53.952;27.612;2023-06-05T18:47:15;1017.2;;;18.9;34.5
53699;BME280;68408;53.952;27.612;2023-06-05T18:52:03;1017.3;;;18.7;35.1
53699;BME280;68408;53.952;27.612;2023-06-05T18:56:37;1017.4;;;18.5;35.5
53699;BME280;68408;53.952;27.612;2023-06-05T19:01:33;1017.5;;;18.2;35.9
53699;BME280;68408;53.952;27.612;2023-06-05T19:07:17;1017.6;;;18;36.4
53699;BME280;68408;53.952;27.612;2023-06-05T19:11:51;1017.6;;;17.7;36.9
53699;BME280;68408;53.952;27.612;2023-06-05T19:16:45;1017.7;;;17.5;37.3
53699;BME280;68408;53.952;27.612;2023-06-05T19:21:49;1017.7;;;17.3;37.9
53699;BME280;68408;53.952;27.612;2023-06-05T19:27:17;1017.8;;;17.2;38.2
53699;BME280;68408;53.952;27.612;2023-06-05T19:32:03;1017.8;;;17.1;38.7
53699;BME280;68408;53.952;27.612;2023-06-05T19:36:33;1017.8;;;16.9;39
53699;BME280;68408;53.952;27.612;2023-06-05T19:41:51;1017.8;;;16.8;39.3
53699;BME280;68408;53.952;27.612;2023-06-05T19:47:15;1017.9;;;16.7;39.4
53699;BME280;68408;53.952;27.612;2023-06-05T19:52:03;1017.9;;;16.6;39.9
53699;BME280;68408;53.952;27.612;2023-06-05T19:56:33;1017.9;;;16.5;40.2
53699;BME280;68408;53.952;27.612;2023-06-05T20:01:33;1018;;;16.3;40.5
53699;BME280;68408;53.952;27.612;2023-06-05T20:07:17;1018;;;16.2;41.1
53699;BME280;68408;53.952;27.612;2023-06-05T20:12:17;1018;;;16.1;41.4
53699;BME280;68408;53.952;27.612;2023-06-05T20:17:13;1018.1;;;16;41.6
53699;BME280;68408;53.952;27.612;2023-06-05T20:21:33;1018.1;;;15.8;41.9
53699;BME280;68408;53.952;27.612;2023-06-05T20:27:15;1018.1;;;15.7;42.2
53699;BME280;68408;53.952;27.612;2023-06-05T20:32:03;1018.2;;;15.6;42.8
53699;BME280;68408;53.952;27.612;2023-06-05T20:36:33;1018.2;;;15.5;42.8
53699;BME280;68408;53.952;27.612;2023-06-05T20:41:59;1018.2;;;15.5;42.9
53699;BME280;68408;53.952;27.612;2023-06-05T20:47:19;1018.3;;;15.4;43.1
53699;BME280;68408;53.952;27.612;2023-06-05T20:52:05;1018.3;;;15.3;43.4
53699;BME280;68408;53.952;27.612;2023-06-05T20:56:45;1018.3;;;15.2;43.7
53699;BME280;68408;53.952;27.612;2023-06-05T21:02:11;1018.4;;;15.1;43.8
53699;BME280;68408;53.952;27.612;2023-06-05T21:07:09;1018.5;;;15;44.1
53699;BME280;68408;53.952;27.612;2023-06-05T21:12:03;1018.6;;;14.9;44.4
53699;BME280;68408;53.952;27.612;2023-06-05T21:16:33;1018.6;;;14.8;44.6
53699;BME280;68408;53.952;27.612;2023-06-05T21:21:33;1018.7;;;14.7;45
53699;BME280;68408;53.952;27.612;2023-06-05T21:27:17;1018.7;;;14.7;45.2
53699;BME280;68408;53.952;27.612;2023-06-05T21:32:17;1018.7;;;14.7;45
53699;BME280;68408;53.952;27.612;2023-06-05T21:36:37;1018.8;;;14.6;45.2
53699;BME280;68408;53.952;27.612;2023-06-05T21:41:49;1018.8;;;14.5;45.5
53699;BME280;68408;53.952;27.612;2023-06-05T21:47:17;1018.8;;;14.5;45.5
53699;BME280;68408;53.952;27.612;2023-06-05T21:52:05;1018.9;;;14.4;45.9
53699;BME280;68408;53.952;27.612;2023-06-05T21:56:33;1018.9;;;14.3;45.9
53699;BME280;68408;53.952;27.612;2023-06-05T22:01:49;1018.9;;;14.2;46.1
53699;BME280;68408;53.952;27.612;2023-06-05T22:07:13;1018.9;;;14;46.7
53699;BME280;68408;53.952;27.612;2023-06-05T22:12:01;1018.9;;;13.9;46.9
53699;BME280;68408;53.952;27.612;2023-06-05T22:16:51;1018.9;;;13.8;47.2
53699;BME280;68408;53.952;27.612;2023-06-05T22:21:47;1018.9;;;13.8;47.4
53699;BME280;68408;53.952;27.612;2023-06-05T22:27:15;1018.9;;;13.7;47.6
53699;BME280;68408;53.952;27.612;2023-06-05T22:32:01;1018.9;;;13.7;47.8
53699;BME280;68408;53.952;27.612;2023-06-05T22:36:59;1018.9;;;13.6;48
53699;BME280;68408;53.952;27.612;2023-06-05T22:41:49;1018.9;;;13.6;48
53699;BME280;68408;53.952;27.612;2023-06-05T22:47:15;1018.9;;;13.6;48.1
53699;BME280;68408;53.952;27.612;2023-06-05T22:52:03;1018.9;;;13.6;48.2
53699;BME280;68408;53.952;27.612;2023-06-05T22:56:43;1018.9;;;13.6;48.2
53699;BME280;68408;53.952;27.612;2023-06-05T23:01:33;1018.9;;;13.6;48.2
53699;BME280;68408;53.952;27.612;2023-06-05T23:07:13;1018.9;;;13.6;48.3
53699;BME280;68408;53.952;27.612;2023-06-05T23:11:57;1018.9;;;13.5;48.4
53699;BME280;68408;53.952;27.612;2023-06-05T23:16:47;1018.9;;;13.5;48.5
53699;BME280;68408;53.952;27.612;2023-06-05T23:22:01;1018.9;;;13.5;48.6
53699;BME280;68408;53.952;27.612;2023-06-05T23:27:13;1018.9;;;13.5;48.7
53699;BME280;68408;53.952;27.612;2023-06-05T23:32:01;1018.9;;;13.4;48.8
53699;BME280;68408;53.952;27.612;2023-06-05T23:36:51;1019;;;13.4;48.9
53699;BME280;68408;53.952;27.612;2023-06-05T23:41:33;1019.1;;;13.3;49.1
53699;BME280;68408;53.952;27.612;2023-06-05T23:47:15;1019.1;;;13.3;49.1
53699;BME280;68408;53.952;27.612;2023-06-05T23:51:57;1019.1;;;13.2;49.2
53699;BME280;68408;53.952;27.612;2023-06-05T23:56:33;1019.1;;;13.2;49.5
